Time;durP1;ratioP1;P1;durP2;ratioP2;P2;SDS_P1;SDS_P2;PMS_P1;PMS_P2;Temp;Humidity;BMP_temperature;BMP_pressure;BME280_temperature;BME280_humidity;BME280_pressure;Samples;Min_cycle;Max_cycle;Signal;HPM_P1;HPM_P2
2023/05/12 00:01:23;;;;;;;19.20;17.80;;;;;;;12.67;100.00;101836.03;5094612;28;20428;-45
2023/05/12 00:03:52;;;;;;;21.13;19.53;;;;;;;12.68;100.00;101842.22;5097138;28;20429;-43
2023/05/12 00:06:20;;;;;;;20.40;19.10;;;;;;;12.69;100.00;101841.22;5096642;28;20759;-42
2023/05/12 00:08:48;;;;;;;18.77;17.57;;;;;;;12.67;100.00;101841.38;5096991;28;20877;-45
2023/05/12 00:11:17;;;;;;;19.23;17.50;;;;;;;12.64;100.00;101841.75;5096499;28;20429;-43
2023/05/12 00:13:45;;;;;;;19.17;17.47;;;;;;;12.65;100.00;101847.94;5096267;28;20430;-43
2023/05/12 00:16:14;;;;;;;18.97;17.43;;;;;;;12.64;100.00;101843.59;5092045;28;20465;-42
2023/05/12 00:18:42;;;;;;;18.50;17.17;;;;;;;12.62;100.00;101838.44;5092080;28;20544;-42
2023/05/12 00:21:11;;;;;;;18.47;17.10;;;;;;;12.59;100.00;101841.47;5093310;28;20441;-43
2023/05/12 00:23:38;;;;;;;18.50;17.03;;;;;;;12.59;100.00;101846.00;5092645;28;20457;-48
2023/05/12 00:26:06;;;;;;;17.93;16.47;;;;;;;12.58;100.00;101847.84;5091568;28;20460;-48
2023/05/12 00:28:35;;;;;;;17.70;16.23;;;;;;;12.54;100.00;101853.75;5092800;28;20456;-45
2023/05/12 00:31:04;;;;;;;17.13;15.70;;;;;;;12.56;100.00;101849.88;5092955;28;20524;-41
2023/05/12 00:33:31;;;;;;;17.17;15.80;;;;;;;12.56;100.00;101849.88;5092277;28;20469;-47
2023/05/12 00:36:02;;;;;;;17.20;15.70;;;;;;;12.53;100.00;101854.75;5093018;28;20457;-41
2023/05/12 00:38:30;;;;;;;19.23;17.53;;;;;;;12.50;100.00;101853.28;5092445;28;20477;-40
2023/05/12 00:40:57;;;;;;;19.67;17.70;;;;;;;12.48;100.00;101857.16;5092034;28;20436;-43
2023/05/12 00:43:25;;;;;;;18.03;16.83;;;;;;;12.47;100.00;101853.63;5091280;28;20422;-45
2023/05/12 00:45:54;;;;;;;17.50;16.33;;;;;;;12.43;100.00;101849.66;5090963;28;20811;-43
2023/05/12 00:48:22;;;;;;;16.77;15.53;;;;;;;12.44;100.00;101856.69;5088568;28;21016;-42
2023/05/12 00:50:50;;;;;;;17.17;16.07;;;;;;;12.45;100.00;101854.84;5092713;28;20457;-40
2023/05/12 00:53:17;;;;;;;18.77;17.13;;;;;;;12.44;100.00;101858.50;5091360;28;20480;-44
2023/05/12 00:55:45;;;;;;;18.27;17.10;;;;;;;12.46;100.00;101853.81;5091537;28;20452;-42
2023/05/12 00:58:13;;;;;;;17.87;16.27;;;;;;;12.48;100.00;101857.16;5091168;28;20495;-45
2023/05/12 01:00:40;;;;;;;17.40;16.10;;;;;;;12.50;100.00;101852.44;5091441;28;20486;-42
2023/05/12 01:03:09;;;;;;;17.90;16.33;;;;;;;12.53;100.00;101854.75;5092177;28;20429;-43
2023/05/12 01:05:47;;;;;;;17.20;16.10;;;;;;;12.53;100.00;101854.75;5091379;28;20488;-47
2023/05/12 01:08:17;;;;;;;16.40;15.40;;;;;;;12.53;100.00;101847.56;5089947;28;20429;-40
2023/05/12 01:10:45;;;;;;;17.80;16.70;;;;;;;12.56;100.00;101854.38;5091984;28;20425;-41
2023/05/12 01:13:13;;;;;;;16.93;15.83;;;;;;;12.59;100.00;101854.03;5089841;28;20469;-43
2023/05/12 01:15:46;;;;;;;17.57;16.37;;;;;;;12.58;100.00;101849.69;5091454;28;20449;-45
2023/05/12 01:18:19;;;;;;;17.03;15.73;;;;;;;12.59;100.00;101860.22;5091294;28;20923;-43
2023/05/12 01:20:47;;;;;;;16.93;15.57;;;;;;;12.63;100.00;101866.84;5091154;28;20429;-42
2023/05/12 01:23:18;;;;;;;16.70;15.17;;;;;;;12.69;100.00;101859.94;5090429;28;20794;-42
2023/05/12 01:25:48;;;;;;;17.17;15.70;;;;;;;12.67;100.00;101862.78;5092028;28;20492;-42
2023/05/12 01:28:18;;;;;;;15.53;14.50;;;;;;;12.68;100.00;101856.44;5091388;28;20454;-42
2023/05/12 01:30:46;;;;;;;17.50;16.20;;;;;;;12.69;100.00;101867.97;5091024;28;20437;-42
2023/05/12 01:33:14;;;;;;;15.40;14.40;;;;;;;12.67;100.00;101861.97;5091478;28;20575;-47
2023/05/12 01:35:42;;;;;;;16.70;15.10;;;;;;;12.71;100.00;101866.78;5092202;28;20464;-48
2023/05/12 01:38:09;;;;;;;15.93;14.30;;;;;;;12.71;100.00;101869.47;5090868;28;20482;-44
2023/05/12 01:40:37;;;;;;;15.63;14.20;;;;;;;12.72;100.00;101870.28;5086225;28;20510;-48
2023/05/12 01:43:04;;;;;;;16.33;15.23;;;;;;;12.73;100.00;101866.59;5090546;28;20950;-46
2023/05/12 01:45:33;;;;;;;17.23;15.67;;;;;;;12.75;100.00;101869.94;5090889;28;20453;-44
2023/05/12 01:48:01;;;;;;;16.90;15.50;;;;;;;12.72;100.00;101872.97;5089493;28;21092;-42
2023/05/12 01:50:29;;;;;;;16.57;15.47;;;;;;;12.76;100.00;101871.56;5089503;28;20470;-43
2023/05/12 01:52:56;;;;;;;16.77;15.67;;;;;;;12.75;100.00;101878.75;5089968;28;20469;-44
2023/05/12 01:55:24;;;;;;;16.63;15.60;;;;;;;12.77;100.00;101882.09;5090527;28;20445;-41
2023/05/12 01:57:52;;;;;;;16.83;15.40;;;;;;;12.72;100.00;101883.69;5091365;28;20436;-44
2023/05/12 02:00:20;;;;;;;16.40;15.50;;;;;;;12.72;100.00;101873.78;5089112;28;20541;-48
2023/05/12 02:02:49;;;;;;;16.70;15.43;;;;;;;12.75;100.00;101884.13;5089872;28;20437;-45
2023/05/12 02:05:17;;;;;;;16.47;15.23;;;;;;;12.74;100.00;101884.31;5089293;28;20461;-43
2023/05/12 02:07:45;;;;;;;17.33;15.97;;;;;;;12.74;100.00;101881.63;5090797;28;20437;-44
2023/05/12 02:10:12;;;;;;;16.60;15.60;;;;;;;12.74;100.00;101889.66;5089306;28;20461;-41
2023/05/12 02:12:40;;;;;;;17.97;16.17;;;;;;;12.72;100.00;101892.50;5090479;28;20469;-39
2023/05/12 02:15:09;;;;;;;17.23;16.00;;;;;;;12.73;100.00;101888.81;5091182;28;20846;-42
2023/05/12 02:17:37;;;;;;;17.07;15.30;;;;;;;12.74;100.00;101895.03;5090380;28;20429;-40
2023/05/12 02:20:07;;;;;;;16.47;15.47;;;;;;;12.74;100.00;101903.03;5086831;28;20504;-40
2023/05/12 02:22:35;;;;;;;18.07;16.47;;;;;;;12.73;100.00;101896.84;5089832;28;20483;-43
2023/05/12 02:25:03;;;;;;;17.50;16.20;;;;;;;12.71;100.00;101906.94;5089509;28;20511;-44
2023/05/12 02:27:31;;;;;;;17.97;16.37;;;;;;;12.70;100.00;101904.41;5090873;28;20830;-40
2023/05/12 02:29:59;;;;;;;16.87;15.73;;;;;;;12.66;100.00;101903.13;5090066;28;20473;-44
2023/05/12 02:32:27;;;;;;;16.67;15.57;;;;;;;12.58;100.00;101908.53;5090189;28;20433;-41
2023/05/12 02:34:55;;;;;;;16.20;14.90;;;;;;;12.62;100.00;101909.84;5089417;28;20481;-46
2023/05/12 02:37:24;;;;;;;17.57;16.37;;;;;;;12.60;100.00;101917.25;5091280;28;20479;-41
2023/05/12 02:39:51;;;;;;;16.97;15.73;;;;;;;12.58;100.00;101916.56;5089074;28;20471;-43
2023/05/12 02:42:19;;;;;;;19.33;15.70;;;;;;;12.57;100.00;101928.31;5090399;28;20434;-41
2023/05/12 02:44:47;;;;;;;16.27;15.00;;;;;;;12.55;100.00;101920.44;5090694;28;20845;-45
2023/05/12 02:47:14;;;;;;;17.10;15.80;;;;;;;12.57;100.00;101915.72;5089581;28;20479;-44
2023/05/12 02:49:42;;;;;;;16.53;15.43;;;;;;;12.56;100.00;101922.13;5087505;28;20473;-42
2023/05/12 02:52:09;;;;;;;25.63;17.00;;;;;;;12.54;100.00;101920.63;5090187;28;20433;-45
2023/05/12 02:54:38;;;;;;;19.33;17.50;;;;;;;12.52;100.00;101918.13;5089825;28;20469;-43
2023/05/12 02:57:07;;;;;;;21.47;17.33;;;;;;;12.54;100.00;101917.97;5089497;28;20432;-44
2023/05/12 02:59:34;;;;;;;17.90;16.70;;;;;;;12.50;100.00;101917.50;5090362;28;20456;-42
2023/05/12 03:02:03;;;;;;;18.70;17.30;;;;;;;12.49;100.00;101923.84;5090462;28;20434;-43
2023/05/12 03:04:32;;;;;;;15.87;14.77;;;;;;;12.49;100.00;101923.84;5090055;28;20461;-46
2023/05/12 03:06:59;;;;;;;19.00;17.30;;;;;;;12.45;100.00;101909.19;5090205;28;20435;-47
2023/05/12 03:09:27;;;;;;;18.03;16.60;;;;;;;12.45;100.00;101919.88;5089085;28;20461;-43
2023/05/12 03:11:56;;;;;;;16.30;15.20;;;;;;;12.45;100.00;101921.72;5089751;28;20833;-41
2023/05/12 03:14:25;;;;;;;18.40;16.90;;;;;;;12.42;100.00;101922.91;5089398;28;20480;-43
2023/05/12 03:16:53;;;;;;;18.27;16.80;;;;;;;12.40;100.00;101911.53;5089933;28;20433;-49
2023/05/12 03:19:20;;;;;;;18.27;16.90;;;;;;;12.38;100.00;101920.75;5088811;28;20457;-42
2023/05/12 03:21:48;;;;;;;17.90;16.60;;;;;;;12.31;100.00;101917.97;5088083;28;20433;-40
2023/05/12 03:24:16;;;;;;;20.40;18.30;;;;;;;12.33;100.00;101925.84;5089866;28;20452;-41
2023/05/12 03:26:44;;;;;;;16.43;14.90;;;;;;;12.32;100.00;101919.66;5089104;28;21035;-46
2023/05/12 03:29:13;;;;;;;18.93;17.23;;;;;;;12.33;100.00;101924.00;5088828;28;20437;-42
2023/05/12 03:31:41;;;;;;;18.40;17.03;;;;;;;12.33;100.00;101924.00;5089294;28;20717;-42
2023/05/12 03:34:09;;;;;;;18.60;17.30;;;;;;;12.36;100.00;101920.97;5093428;28;20465;-45
2023/05/12 03:36:37;;;;;;;19.20;17.70;;;;;;;12.37;100.00;101927.94;5093504;28;20444;-46
2023/05/12 03:39:07;;;;;;;18.40;17.20;;;;;;;12.40;100.00;101924.91;5096465;28;20961;-43
2023/05/12 03:41:35;;;;;;;18.40;16.53;;;;;;;12.39;100.00;101923.28;5096340;28;20475;-43
2023/05/12 03:44:04;;;;;;;19.67;18.10;;;;;;;12.44;100.00;101925.41;5096372;28;20429;-41
2023/05/12 03:46:33;;;;;;;19.47;18.10;;;;;;;12.39;100.00;101931.31;5096736;28;20441;-41
2023/05/12 03:49:01;;;;;;;19.37;17.87;;;;;;;12.37;100.00;101929.78;5093743;28;20429;-44
2023/05/12 03:51:29;;;;;;;19.60;18.10;;;;;;;12.37;100.00;101925.28;5096533;28;20460;-42
2023/05/12 03:53:56;;;;;;;19.20;17.70;;;;;;;12.39;100.00;101935.81;5095383;28;20869;-44
2023/05/12 03:56:24;;;;;;;18.60;17.20;;;;;;;12.39;100.00;101935.81;5095338;28;20433;-45
2023/05/12 03:58:52;;;;;;;18.67;17.20;;;;;;;12.43;100.00;101932.59;5096431;28;20445;-41
2023/05/12 04:01:19;;;;;;;19.90;18.07;;;;;;;12.45;100.00;101935.94;5095682;28;20437;-47
2023/05/12 04:03:48;;;;;;;19.43;17.93;;;;;;;12.53;100.00;101941.22;5096109;28;20504;-42
2023/05/12 04:06:16;;;;;;;18.70;17.50;;;;;;;12.46;100.00;101939.41;5097360;28;20495;-45
2023/05/12 04:08:44;;;;;;;18.93;17.30;;;;;;;12.40;100.00;101935.63;5096960;28;20432;-41
2023/05/12 04:11:12;;;;;;;18.57;17.07;;;;;;;12.51;100.00;101939.72;5096592;28;20454;-42
2023/05/12 04:13:40;;;;;;;19.43;18.03;;;;;;;12.56;100.00;101937.34;5095407;28;20558;-44
2023/05/12 04:16:08;;;;;;;18.80;17.10;;;;;;;12.60;100.00;101942.13;5094782;28;20453;-42
2023/05/12 04:18:36;;;;;;;20.50;17.90;;;;;;;12.72;100.00;101945.22;5097392;28;20974;-45
2023/05/12 04:21:05;;;;;;;18.40;16.93;;;;;;;12.75;100.00;101956.38;5092645;28;20491;-43
2023/05/12 04:23:33;;;;;;;19.60;17.70;;;;;;;12.83;100.00;101957.34;5096537;28;20966;-48
2023/05/12 04:26:03;;;;;;;19.37;17.87;;;;;;;12.80;100.00;101955.03;5096762;28;20454;-46
2023/05/12 04:28:31;;;;;;;19.03;17.60;;;;;;;12.78;100.00;101961.38;5096320;28;20435;-47
2023/05/12 04:31:02;;;;;;;19.27;17.30;;;;;;;12.78;100.00;101969.41;5095774;28;20457;-47
2023/05/12 04:33:29;;;;;;;18.50;17.27;;;;;;;12.79;100.00;101970.25;5096114;28;20431;-48
2023/05/12 04:35:57;;;;;;;19.27;17.87;;;;;;;12.98;100.00;101971.56;5094599;28;20451;-44
2023/05/12 04:38:27;;;;;;;18.90;17.70;;;;;;;13.06;100.00;101966.97;5095706;28;20439;-41
2023/05/12 04:40:57;;;;;;;19.37;17.40;;;;;;;13.22;100.00;101982.09;5095832;28;20457;-43
2023/05/12 04:43:25;;;;;;;19.50;18.07;;;;;;;13.29;100.00;101973.09;5095103;28;20436;-48
2023/05/12 04:45:56;;;;;;;19.47;17.70;;;;;;;13.39;100.00;101978.19;5095120;28;20456;-41
2023/05/12 04:48:26;;;;;;;16.97;15.67;;;;;;;13.49;100.00;101975.25;5093817;28;20422;-42
2023/05/12 04:50:54;;;;;;;17.67;16.00;;;;;;;13.59;100.00;101981.97;5095243;28;20449;-41
2023/05/12 04:53:22;;;;;;;17.17;15.63;;;;;;;13.69;100.00;101977.16;5095202;28;20768;-45
2023/05/12 04:55:51;;;;;;;17.47;16.27;;;;;;;13.70;100.00;101975.31;5096239;28;20477;-43
2023/05/12 04:58:19;;;;;;;17.73;16.27;;;;;;;13.88;100.00;101982.97;5096939;28;20425;-44
2023/05/12 05:00:46;;;;;;;17.10;15.70;;;;;;;14.01;100.00;101985.81;5094212;28;20473;-41
2023/05/12 05:03:14;;;;;;;17.10;15.90;;;;;;;14.29;100.00;101984.88;5096326;28;20429;-44
2023/05/12 05:05:42;;;;;;;16.50;15.57;;;;;;;14.38;100.00;101985.63;5093065;28;20454;-43
2023/05/12 05:08:09;;;;;;;16.47;15.27;;;;;;;14.79;100.00;101991.97;5094705;28;20464;-41
2023/05/12 05:10:37;;;;;;;17.17;16.07;;;;;;;14.88;100.00;101989.97;5096167;28;20701;-43
2023/05/12 05:13:06;;;;;;;15.87;14.83;;;;;;;15.47;100.00;101988.56;5095770;28;20430;-42
2023/05/12 05:15:34;;;;;;;16.30;14.97;;;;;;;16.93;100.00;101994.16;5096587;28;20477;-41
2023/05/12 05:18:01;;;;;;;15.33;14.43;;;;;;;17.62;100.00;101980.97;5095620;28;20425;-39
2023/05/12 05:20:31;;;;;;;13.67;12.40;;;;;;;17.38;100.00;101987.03;5095164;28;20970;-44
2023/05/12 05:23:00;;;;;;;15.60;14.33;;;;;;;16.85;100.00;101988.97;5094709;28;20542;-40
2023/05/12 05:25:27;;;;;;;14.17;13.17;;;;;;;16.44;100.00;101991.81;5096252;28;20442;-41
2023/05/12 05:27:55;;;;;;;16.57;14.90;;;;;;;16.25;100.00;102005.22;5095441;28;20994;-43
2023/05/12 05:30:24;;;;;;;15.33;14.23;;;;;;;16.16;100.00;102006.47;5093346;28;20465;-43
2023/05/12 05:32:52;;;;;;;14.70;13.60;;;;;;;15.85;100.00;102006.97;5094808;28;20464;-42
2023/05/12 05:35:20;;;;;;;16.00;14.50;;;;;;;15.74;100.00;102018.31;5095684;28;20473;-41
2023/05/12 05:37:49;;;;;;;14.50;13.10;;;;;;;15.62;100.00;102011.81;5094587;28;20426;-39
2023/05/12 05:40:17;;;;;;;14.60;13.23;;;;;;;15.39;100.00;102007.50;5093248;28;20900;-41
2023/05/12 05:42:45;;;;;;;14.50;13.40;;;;;;;15.22;100.00;102024.13;5095326;28;20425;-42
2023/05/12 05:45:12;;;;;;;14.10;12.63;;;;;;;15.31;100.00;102028.34;5093534;28;20954;-41
2023/05/12 05:47:41;;;;;;;14.73;13.47;;;;;;;15.20;100.00;102023.53;5094774;28;21001;-41
2023/05/12 05:50:10;;;;;;;13.80;12.77;;;;;;;15.17;100.00;102023.91;5089698;28;20466;-41
2023/05/12 05:52:37;;;;;;;14.03;12.90;;;;;;;15.28;100.00;102026.03;5093097;28;20486;-41
2023/05/12 05:55:06;;;;;;;13.07;12.27;;;;;;;15.85;100.00;102031.16;5093777;28;20469;-43
2023/05/12 05:57:34;;;;;;;13.73;12.73;;;;;;;15.93;100.00;102037.22;5093273;28;21051;-39
2023/05/12 06:00:03;;;;;;;14.03;13.03;;;;;;;15.91;100.00;102038.44;5092594;28;20457;-43
2023/05/12 06:02:32;;;;;;;13.17;12.17;;;;;;;15.89;100.00;102037.78;5093875;28;20802;-46
2023/05/12 06:05:01;;;;;;;14.00;12.90;;;;;;;15.99;100.00;102035.56;5093918;28;20453;-41
2023/05/12 06:07:29;;;;;;;13.67;12.63;;;;;;;16.01;100.00;102028.13;5094294;28;20868;-40
2023/05/12 06:09:57;;;;;;;12.30;11.40;;;;;;;16.05;100.00;102034.78;5092914;28;20461;-39
2023/05/12 06:12:25;;;;;;;14.70;12.87;;;;;;;16.08;100.00;102034.38;5093930;28;20429;-40
2023/05/12 06:14:53;;;;;;;13.20;12.30;;;;;;;16.03;100.00;102034.97;5093257;28;20469;-38
2023/05/12 06:17:20;;;;;;;12.83;11.73;;;;;;;16.02;100.00;102045.94;5093511;28;20455;-39
2023/05/12 06:19:49;;;;;;;13.00;12.17;;;;;;;16.16;100.00;102036.88;5092827;28;20453;-41
2023/05/12 06:22:18;;;;;;;12.93;11.73;;;;;;;15.98;100.00;102036.59;5093631;28;20490;-39
2023/05/12 06:24:46;;;;;;;13.20;12.00;;;;;;;16.06;100.00;102047.22;5092788;28;20499;-39
2023/05/12 06:27:13;;;;;;;11.90;11.10;;;;;;;16.12;100.00;102054.47;5093584;28;20433;-41
2023/05/12 06:29:41;;;;;;;12.90;11.30;;;;;;;16.09;100.00;102064.81;5093247;28;20465;-38
2023/05/12 06:32:09;;;;;;;12.20;11.30;;;;;;;16.16;100.00;102063.78;5092217;28;20441;-44
2023/05/12 06:34:36;;;;;;;14.70;13.47;;;;;;;16.19;100.00;102063.38;5093767;28;20446;-46
2023/05/12 06:37:04;;;;;;;15.30;14.10;;;;;;;16.27;100.00;102065.09;5094943;28;20432;-46
2023/05/12 06:39:33;;;;;;;15.03;13.60;;;;;;;16.47;100.00;102065.97;5094582;28;20460;-41
2023/05/12 06:42:01;;;;;;;12.27;11.33;;;;;;;16.53;100.00;102059.78;5092974;28;20445;-42
2023/05/12 06:44:28;;;;;;;14.37;13.00;;;;;;;16.81;100.00;102067.72;5093044;28;20456;-42
2023/05/12 06:46:56;;;;;;;12.73;11.60;;;;;;;16.85;100.00;102071.66;5094907;28;20422;-42
2023/05/12 06:49:24;;;;;;;12.83;11.80;;;;;;;16.67;100.00;102068.72;5089144;28;20539;-43
2023/05/12 06:51:52;;;;;;;12.57;11.37;;;;;;;16.75;100.00;102071.25;5092626;28;20440;-42
2023/05/12 06:54:19;;;;;;;12.13;11.23;;;;;;;16.88;100.00;102069.38;5094268;28;20453;-42
2023/05/12 06:56:48;;;;;;;13.10;12.20;;;;;;;16.95;100.00;102066.72;5094457;28;20834;-42
2023/05/12 06:59:16;;;;;;;14.63;11.53;;;;;;;16.96;100.00;102080.00;5093113;28;20482;-40
2023/05/12 07:01:46;;;;;;;12.80;11.27;;;;;;;16.87;100.00;102078.53;5094236;28;20426;-39
2023/05/12 07:04:14;;;;;;;13.30;12.13;;;;;;;16.99;100.00;102076.03;5095871;28;20490;-41
2023/05/12 07:06:42;;;;;;;11.13;10.53;;;;;;;17.12;100.00;102076.88;5094586;28;20619;-42
2023/05/12 07:09:09;;;;;;;14.00;11.77;;;;;;;17.33;100.00;102075.81;5092247;28;20429;-40
2023/05/12 07:11:37;;;;;;;11.20;10.30;;;;;;;17.47;100.00;102073.97;5097578;28;20497;-41
2023/05/12 07:14:06;;;;;;;16.10;12.17;;;;;;;17.89;100.00;102078.06;5098573;28;20493;-42
2023/05/12 07:16:34;;;;;;;12.13;11.13;;;;;;;18.09;100.00;102076.94;5097999;28;20550;-41
2023/05/12 07:19:02;;;;;;;12.00;10.63;;;;;;;18.30;100.00;102077.66;5096145;28;20435;-42
2023/05/12 07:21:29;;;;;;;11.80;10.70;;;;;;;18.59;100.00;102087.94;5096448;28;20429;-40
2023/05/12 07:23:58;;;;;;;18.77;10.37;;;;;;;18.88;100.00;102078.38;5097127;28;20482;-41
2023/05/12 07:26:27;;;;;;;11.17;10.23;;;;;;;18.76;100.00;102075.56;5096963;28;20432;-41
2023/05/12 07:28:55;;;;;;;9.73;8.83;;;;;;;18.85;100.00;102093.16;5088375;28;21136;-41
2023/05/12 07:31:24;;;;;;;10.60;9.80;;;;;;;18.56;99.46;102094.59;5095605;28;20468;-40
2023/05/12 07:33:52;;;;;;;10.93;10.03;;;;;;;18.58;100.00;102097.06;5095609;28;20488;-41
2023/05/12 07:36:19;;;;;;;12.43;10.97;;;;;;;18.48;100.00;102102.09;5097891;28;20518;-41
2023/05/12 07:38:48;;;;;;;9.97;9.07;;;;;;;18.61;100.00;102102.03;5099382;28;20431;-41
2023/05/12 07:41:16;;;;;;;11.57;10.20;;;;;;;18.49;100.00;102093.78;5096413;28;20460;-43
2023/05/12 07:43:44;;;;;;;11.50;10.60;;;;;;;18.66;100.00;102094.13;5096394;28;20433;-43
2023/05/12 07:46:12;;;;;;;10.20;9.40;;;;;;;18.83;100.00;102097.97;5098131;28;20477;-45
2023/05/12 07:48:41;;;;;;;11.40;10.40;;;;;;;18.83;100.00;102091.72;5099164;28;20501;-42
2023/05/12 07:51:09;;;;;;;10.13;9.33;;;;;;;18.99;100.00;102108.25;5095794;28;20552;-42
2023/05/12 07:53:37;;;;;;;10.57;9.37;;;;;;;19.63;98.63;102104.41;5096897;28;20734;-41
2023/05/12 07:56:06;;;;;;;10.47;9.57;;;;;;;19.68;92.67;102093.75;5097638;28;21039;-41
2023/05/12 07:58:34;;;;;;;11.17;10.30;;;;;;;19.70;95.64;102100.59;5098902;28;20429;-41
2023/05/12 08:01:04;;;;;;;10.73;9.87;;;;;;;19.66;91.77;102106.66;5096774;28;20858;-43
2023/05/12 08:03:32;;;;;;;9.70;8.80;;;;;;;19.84;90.81;102096.69;5097409;28;20433;-44
2023/05/12 08:06:02;;;;;;;10.07;9.07;;;;;;;20.13;88.16;102105.13;5099036;28;20804;-43
2023/05/12 08:08:30;;;;;;;9.13;8.30;;;;;;;20.07;85.40;102103.31;5099320;28;20984;-45
2023/05/12 08:10:58;;;;;;;10.30;9.27;;;;;;;20.07;88.87;102108.72;5098687;28;20490;-46
2023/05/12 08:13:26;;;;;;;9.60;8.80;;;;;;;20.19;89.77;102106.94;5095896;28;20443;-41
2023/05/12 08:15:53;;;;;;;8.80;8.20;;;;;;;20.47;86.59;102106.38;5096533;28;20476;-41
2023/05/12 08:18:21;;;;;;;10.43;9.17;;;;;;;20.62;80.87;102118.47;5096940;28;20436;-44
2023/05/12 08:20:49;;;;;;;8.97;8.43;;;;;;;20.94;80.79;102113.59;5096782;28;20484;-44
2023/05/12 08:23:19;;;;;;;11.23;10.00;;;;;;;20.84;79.35;102126.91;5096230;28;20436;-47
2023/05/12 08:25:47;;;;;;;9.70;8.90;;;;;;;20.85;79.33;102125.84;5097207;28;20858;-46
2023/05/12 08:28:15;;;;;;;10.50;9.60;;;;;;;20.35;82.43;102114.44;5097751;28;20436;-46
2023/05/12 08:30:43;;;;;;;10.57;9.53;;;;;;;19.93;85.25;102121.56;5096402;28;20460;-46
2023/05/12 08:33:11;;;;;;;9.67;8.80;;;;;;;19.58;89.67;102124.03;5096251;28;20486;-43
2023/05/12 08:35:39;;;;;;;11.10;10.10;;;;;;;19.24;92.60;102121.78;5096748;28;20452;-44
2023/05/12 08:38:07;;;;;;;9.80;8.80;;;;;;;19.43;94.30;102130.81;5099087;28;20914;-43
2023/05/12 08:40:45;;;;;;;9.73;8.93;;;;;;;19.49;91.62;102135.34;5097272;28;20460;-47
2023/05/12 08:43:23;;;;;;;9.43;8.03;;;;;;;19.52;96.62;102134.91;5096355;28;20421;-43
2023/05/12 08:45:51;;;;;;;10.77;9.77;;;;;;;19.57;96.82;102129.66;5097101;28;20441;-43
2023/05/12 08:48:21;;;;;;;9.63;8.73;;;;;;;19.55;91.21;102134.47;5097775;28;20603;-43
2023/05/12 08:50:51;;;;;;;9.20;8.20;;;;;;;19.61;88.13;102141.69;5096257;28;20484;-40
2023/05/12 08:53:20;;;;;;;19.37;7.77;;;;;;;19.64;89.05;102135.84;5096539;28;20520;-41
2023/05/12 08:55:50;;;;;;;9.07;8.30;;;;;;;19.59;82.76;102143.81;5095708;28;20449;-40
2023/05/12 08:58:38;;;;;;;8.13;7.50;;;;;;;19.53;83.78;102160.91;5097131;28;20457;-40
2023/05/12 09:01:13;;;;;;;9.87;8.37;;;;;;;19.40;85.90;102140.22;5096866;28;20511;-45
2023/05/12 09:03:42;;;;;;;8.77;8.17;;;;;;;19.37;85.32;102145.19;5095100;28;21018;-42
2023/05/12 09:06:11;;;;;;;8.87;8.37;;;;;;;19.28;91.58;102148.19;5097615;28;20467;-41
2023/05/12 09:08:40;;;;;;;12.37;9.10;;;;;;;19.26;91.41;102147.56;5097993;28;20447;-44
2023/05/12 09:11:11;;;;;;;8.67;7.97;;;;;;;19.55;91.29;102148.81;5090141;28;21008;-41
2023/05/12 09:13:54;;;;;;;10.80;8.23;;;;;;;19.50;84.63;102153.25;5095507;28;20421;-45
2023/05/12 09:16:24;;;;;;;8.77;8.07;;;;;;;19.57;85.95;102168.34;5096507;28;20468;-43
2023/05/12 09:18:54;;;;;;;7.90;7.20;;;;;;;19.52;85.52;102148.44;5097174;28;20458;-42
2023/05/12 09:21:22;;;;;;;11.00;8.70;;;;;;;19.59;83.29;102158.13;5089240;28;20646;-45
2023/05/12 09:23:55;;;;;;;10.70;7.77;;;;;;;19.56;87.38;102155.88;5097283;28;20425;-41
2023/05/12 09:26:25;;;;;;;8.67;7.50;;;;;;;19.83;85.57;102148.34;5099288;28;20457;-41
2023/05/12 09:28:54;;;;;;;8.53;7.73;;;;;;;20.03;85.41;102151.69;5099346;28;20432;-41
2023/05/12 09:31:24;;;;;;;8.90;8.30;;;;;;;19.86;81.04;102158.75;5098847;28;20491;-39
2023/05/12 09:33:52;;;;;;;9.13;8.57;;;;;;;19.85;81.22;102157.06;5099267;28;20433;-42
2023/05/12 09:36:21;;;;;;;7.53;6.73;;;;;;;20.00;79.02;102152.13;5098725;28;20449;-43
2023/05/12 09:38:58;;;;;;;7.73;7.13;;;;;;;19.96;77.16;102169.88;5098162;28;20439;-42
2023/05/12 09:41:27;;;;;;;11.17;8.20;;;;;;;19.95;78.09;102162.78;5097578;28;20524;-39
2023/05/12 09:43:55;;;;;;;7.73;7.00;;;;;;;19.91;78.35;102164.31;5098381;28;20443;-41
2023/05/12 09:46:24;;;;;;;7.63;6.83;;;;;;;20.05;79.77;102179.34;5112004;22;20486;-39
2023/05/12 09:48:55;;;;;;;9.07;7.43;;;;;;;20.16;78.82;102175.09;5063315;28;20433;-40
2023/05/12 09:51:24;;;;;;;8.90;8.20;;;;;;;20.19;80.02;102180.06;5067099;28;20468;-39
2023/05/12 09:53:52;;;;;;;7.17;6.57;;;;;;;20.02;76.03;102178.97;5071357;28;20440;-42
2023/05/12 09:56:20;;;;;;;11.37;7.53;;;;;;;19.99;74.33;102174.00;5071139;28;20446;-44
2023/05/12 09:58:49;;;;;;;8.10;7.50;;;;;;;20.06;73.69;102181.03;5071463;28;20429;-42
2023/05/12 10:01:20;;;;;;;7.60;6.90;;;;;;;20.13;74.53;102178.25;5070492;28;20460;-42
2023/05/12 10:03:53;;;;;;;8.80;7.90;;;;;;;20.09;71.67;102174.31;5070922;28;20532;-42
2023/05/12 10:06:27;;;;;;;8.63;7.27;;;;;;;20.07;69.84;102188.06;5071217;28;20454;-46
2023/05/12 10:09:04;;;;;;;10.00;7.87;;;;;;;20.20;66.94;102174.41;5071153;28;20437;-42
2023/05/12 10:11:32;;;;;;;7.27;6.70;;;;;;;20.36;66.25;102181.13;5070466;28;20461;-42
2023/05/12 10:14:01;;;;;;;6.97;6.47;;;;;;;20.29;67.12;102180.38;5070811;28;20923;-40
2023/05/12 10:16:30;;;;;;;6.97;6.37;;;;;;;20.58;64.57;102173.38;5070938;28;20480;-40
2023/05/12 10:18:58;;;;;;;7.47;6.77;;;;;;;20.60;64.81;102177.50;5071136;28;20435;-40
2023/05/12 10:21:27;;;;;;;6.40;5.90;;;;;;;20.65;59.08;102191.19;5070351;28;20464;-45
2023/05/12 10:23:56;;;;;;;6.30;5.50;;;;;;;20.65;58.38;102176.81;5070887;28;20520;-44
2023/05/12 10:26:24;;;;;;;6.27;5.80;;;;;;;20.87;56.92;102175.25;5070885;28;20514;-39
2023/05/12 10:28:52;;;;;;;7.67;6.70;;;;;;;21.25;56.67;102175.75;5062789;28;20433;-41
2023/05/12 10:31:23;;;;;;;6.30;5.80;;;;;;;21.56;55.35;102187.38;5070127;28;20478;-43
2023/05/12 10:33:58;;;;;;;6.27;5.63;;;;;;;21.30;50.62;102181.31;5071000;28;20476;-44
2023/05/12 10:36:26;;;;;;;6.30;5.60;;;;;;;21.42;51.78;102179.44;5070740;28;20449;-40
2023/05/12 10:38:55;;;;;;;5.50;5.20;;;;;;;21.50;49.81;102192.66;5070523;28;20465;-41
2023/05/12 10:41:30;;;;;;;6.33;5.93;;;;;;;21.58;51.85;102172.50;5070141;28;20476;-41
2023/05/12 10:43:58;;;;;;;6.17;5.67;;;;;;;21.58;49.61;102172.50;5070683;28;20795;-41
2023/05/12 10:46:28;;;;;;;6.20;5.03;;;;;;;21.67;48.33;102179.25;5074103;28;20453;-40
2023/05/12 10:48:59;;;;;;;6.10;5.60;;;;;;;21.69;49.20;102173.56;5074809;28;20432;-40
2023/05/12 10:51:29;;;;;;;5.93;5.10;;;;;;;21.58;44.44;102174.41;5073798;28;20464;-42
2023/05/12 10:53:59;;;;;;;6.00;5.47;;;;;;;21.61;47.00;102176.63;5074412;28;20516;-39
2023/05/12 10:56:29;;;;;;;5.13;4.60;;;;;;;21.98;46.16;102183.53;5074486;28;20453;-40
2023/05/12 10:59:17;;;;;;;5.90;5.33;;;;;;;21.98;42.48;102187.06;5074240;28;20515;-40
2023/05/12 11:01:59;;;;;;;6.43;5.83;;;;;;;21.86;42.46;102188.13;5073262;28;20450;-39
2023/05/12 11:04:40;;;;;;;5.97;5.53;;;;;;;21.85;45.81;102192.72;5074248;28;20432;-43
2023/05/12 11:07:11;;;;;;;7.23;5.53;;;;;;;21.69;45.98;102193.41;5073983;28;20433;-39
2023/05/12 11:09:42;;;;;;;6.50;6.10;;;;;;;21.78;45.86;102188.44;5074225;28;20433;-40
2023/05/12 11:12:26;;;;;;;6.57;5.97;;;;;;;21.64;45.54;102193.28;5073455;28;20557;-40
2023/05/12 11:14:54;;;;;;;5.90;5.60;;;;;;;21.72;45.80;102194.81;5073991;28;20427;-42